Flight Track Log - Related Links

Times and Time Zones

All times are in EDT time to prevent confusion due to time zone crossing. See the AWE1940 flight status page for this flight to view local times or setup timezone preferences in your user account.

Time Position Orientation Groundspeed Altitude Reporting Facility
EDT Latitude Longitude Course Direction KTS MPH feet Rate Location/Type
Tue 06:40:01 PM 29.9572 -95.3392 130° Southeast 191 220 800  Level Houston Center
Tue 06:40:54 PM 29.9250 -95.2953 130° Southeast 219 252 2,600 1,950 Climbing Houston Center
Tue 06:41:21 PM 29.9044 -95.2686 132° Southeast 247 284 3,400 2,323 Climbing Houston Center
Tue 06:41:56 PM 29.8897 -95.2239 111° Southeast 245 282 5,000 2,903 Climbing Houston Center
Tue 06:42:23 PM 29.8861 -95.1839 96° East 280 322 6,400 2,806 Climbing Houston Center
Tue 06:42:58 PM 29.8836 -95.1344 93° East 277 319 7,900 2,656 Climbing Houston Center
Tue 06:43:24 PM 29.8900 -95.0894 81° East 297 342 9,100 2,516 Climbing Houston Center
Tue 06:44:00 PM 29.8969 -95.0400 81° East 295 339 10,500 1,714 Climbing Houston Center
Tue 06:45:02 PM 29.9122 -94.9306 81° East 344 396 11,900 1,839 Climbing Houston Center
Tue 06:46:04 PM 29.9297 -94.8103 80° East 375 432 14,300 2,274 Climbing Houston Center
Tue 06:47:06 PM 29.9461 -94.6842 81° East 394 453 16,600 2,081 Climbing Houston Center
Tue 06:48:08 PM 29.9633 -94.5536 81° East 408 470 18,600 1,935 Climbing Houston Center
Tue 06:49:10 PM 29.9825 -94.4139 81° East 417 480 20,600 1,984 Climbing Houston Center
Tue 06:50:12 PM 30.0039 -94.2492 81° East 433 498 22,700 1,694 Climbing Houston Center
Tue 06:51:14 PM 30.0214 -94.1061 82° East 448 516 24,100 1,403 Climbing Houston Center
Tue 06:52:16 PM 30.0403 -93.9592 82° East 462 532 25,600 1,355 Climbing Houston Center
Tue 06:53:18 PM 30.0575 -93.8111 82° East 470 541 26,900 1,452 Climbing Houston Center
Tue 06:54:20 PM 30.0756 -93.6611 82° East 477 549 28,600 1,561 Climbing Houston Center
Tue 06:55:21 PM 30.0928 -93.5147 82° East 469 540 30,100 1,366 Climbing Houston Center
Tue 06:56:23 PM 30.1128 -93.3406 82° East 465 535 31,400 1,113 Climbing Houston Center
Tue 06:57:25 PM 30.1289 -93.1919 83° East 470 541 32,400 774 Climbing Houston Center
Tue 06:58:27 PM 30.1508 -93.0464 80° East 466 536 33,000 290 Climbing Houston Center
Tue 06:59:29 PM 30.1800 -92.9042 77° East 457 526 33,000  Level Houston Center
Tue 07:00:31 PM 30.2075 -92.7608 77° East 459 528 33,000  Level Houston Center
Tue 07:01:33 PM 30.2400 -92.5878 78° East 461 531 33,000  Level Houston Center
Tue 07:02:35 PM 30.2689 -92.4447 77° East 460 529 33,000  Level Houston Center
Tue 07:03:37 PM 30.2983 -92.2847 78° East 462 532 33,000  Level Houston Center
Tue 07:04:38 PM 30.3261 -92.1414 77° East 461 531 33,000  Level Houston Center
Tue 07:05:40 PM 30.3539 -91.9978 77° East 460 529 33,000  Level Houston Center
Tue 07:06:42 PM 30.3822 -91.8533 77° East 462 532 33,000  Level Houston Center
Tue 07:07:44 PM 30.4089 -91.7058 78° East 461 531 33,000  Level Houston Center
Tue 07:08:46 PM 30.4372 -91.5592 77° East 465 535 33,000  Level Houston Center
Tue 07:09:47 PM 30.4639 -91.4125 78° East 467 537 33,000  Level Houston Center
Tue 07:10:49 PM 30.4922 -91.2644 77° East 469 540 33,000  Level Houston Center
Tue 07:11:51 PM 30.5317 -91.0919 75° East 464 534 33,000  Level Houston Center
Tue 07:12:53 PM 30.5639 -90.9467 76° East 463 533 33,000  Level Houston Center
Tue 07:13:54 PM 30.5986 -90.8014 74° East 466 536 33,000  Level Houston Center
Tue 07:14:56 PM 30.6308 -90.6547 76° East 468 539 33,000  Level Houston Center
Tue 07:15:58 PM 30.6636 -90.5089 75° East 469 540 33,000  Level Houston Center
Tue 07:17:00 PM 30.6961 -90.3631 75° East 467 537 33,000  Level Houston Center
Tue 07:18:01 PM 30.7303 -90.2156 75° East 469 540 33,000  Level Houston Center
Tue 07:19:03 PM 30.7625 -90.0678 76° East 469 540 33,000  Level Houston Center
Tue 07:20:05 PM 30.8142 -89.8981 70° East 463 533 33,000  Level Houston Center
Tue 07:21:07 PM 30.8703 -89.7631 64° Northeast 460 529 33,000  Level Houston Center
Tue 07:22:08 PM 30.9253 -89.6272 65° Northeast 461 531 33,000  Level Houston Center
Tue 07:23:10 PM 30.9814 -89.4919 64° Northeast 461 531 33,000  Level Houston Center
Tue 07:24:12 PM 31.0364 -89.3572 64° Northeast 460 529 33,000  Level Houston Center
Tue 07:25:14 PM 31.0914 -89.2219 65° Northeast 459 528 33,000  Level Houston Center
Tue 07:26:15 PM 31.1458 -89.0881 65° Northeast 458 527 33,000  Level Houston Center
Tue 07:27:17 PM 31.1994 -88.9542 65° Northeast 456 525 33,000  Level Houston Center
Tue 07:28:19 PM 31.2597 -88.7975 66° East 452 520 33,000  Level Houston Center
Tue 07:29:21 PM 31.3136 -88.6669 64° Northeast 447 514 33,000  Level Houston Center
Tue 07:30:22 PM 31.3669 -88.5353 65° Northeast 444 511 33,000  Level Houston Center
Tue 07:31:24 PM 31.4206 -88.4056 64° Northeast 441 507 33,000  Level Houston Center
Tue 07:32:09 PM 31.4667 -88.2992 63° Northeast 435 501 33,000  Level Atlanta Center
Tue 07:33:09 PM 31.5150 -88.1675 67° East 435 501 33,000  Level Atlanta Center
Tue 07:34:09 PM 31.5692 -88.0383 64° Northeast 435 501 33,000  Level Atlanta Center
Tue 07:35:09 PM 31.6192 -87.9089 66° East 435 501 33,000  Level Atlanta Center
Tue 07:36:09 PM 31.6692 -87.7769 66° East 435 501 33,000  Level Atlanta Center
Tue 07:37:09 PM 31.7211 -87.6472 65° Northeast 435 501 33,000  Level Atlanta Center
Tue 07:38:09 PM 31.7750 -87.5175 64° Northeast 435 501 33,000  Level Atlanta Center
Tue 07:39:10 PM 31.8469 -87.4006 54° Northeast 435 501 33,000  Level Atlanta Center
Tue 07:40:09 PM 31.9083 -87.2950 56° Northeast 435 501 33,000  Level Atlanta Center
Tue 07:41:09 PM 31.9803 -87.1753 55° Northeast 440 506 33,000  Level Atlanta Center
Tue 07:42:10 PM 32.0542 -87.0553 54° Northeast 440 506 33,000  Level Atlanta Center
Tue 07:43:09 PM 32.1281 -86.9378 53° Northeast 445 512 33,000  Level Atlanta Center
Tue 07:44:09 PM 32.2017 -86.8175 54° Northeast 445 512 33,000  Level Atlanta Center
Tue 07:45:09 PM 32.2900 -86.6900 51° Northeast 445 512 33,000  Level Atlanta Center
Tue 07:46:09 PM 32.3636 -86.5667 55° Northeast 445 512 33,000  Level Atlanta Center
Tue 07:47:10 PM 32.4392 -86.4458 53° Northeast 451 519 33,000  Level Atlanta Center
Tue 07:48:10 PM 32.5103 -86.3197 56° Northeast 451 519 33,000  Level Atlanta Center
Tue 07:49:09 PM 32.5836 -86.1958 55° Northeast 457 526 33,000  Level Atlanta Center
Tue 07:50:09 PM 32.6567 -86.0742 54° Northeast 457 526 33,000  Level Atlanta Center
Tue 07:51:09 PM 32.7294 -85.9525 55° Northeast 457 526 33,000  Level Atlanta Center
Tue 07:52:10 PM 32.8044 -85.8306 54° Northeast 457 526 33,000  Level Atlanta Center
Tue 07:53:10 PM 32.8769 -85.7108 54° Northeast 457 526 33,000  Level Atlanta Center
Tue 07:54:09 PM 32.9475 -85.5908 55° Northeast 452 520 33,000  Level Atlanta Center
Tue 07:55:09 PM 33.0200 -85.4733 54° Northeast 446 513 33,000  Level Atlanta Center
Tue 07:56:10 PM 33.0858 -85.3628 55° Northeast 446 513 33,000  Level Atlanta Center
Tue 07:57:10 PM 33.1644 -85.2300 55° Northeast 446 513 33,000  Level Atlanta Center
Tue 07:58:09 PM 33.2364 -85.1067 55° Northeast 446 513 33,000  Level Atlanta Center
Tue 07:59:10 PM 33.3106 -84.9808 55° Northeast 446 513 33,000  Level Atlanta Center
Tue 08:00:09 PM 33.3844 -84.8572 54° Northeast 446 513 33,000  Level Atlanta Center
Tue 08:01:09 PM 33.4561 -84.7361 55° Northeast 446 513 33,000  Level Atlanta Center
Tue 08:02:09 PM 33.5258 -84.6119 56° Northeast 446 513 33,000  Level Atlanta Center
Tue 08:03:09 PM 33.5825 -84.5125 56° Northeast 446 513 33,000  Level Atlanta Center
Tue 08:04:09 PM 33.6497 -84.3558 63° Northeast 440 506 33,000  Level Atlanta Center
Tue 08:05:09 PM 33.6897 -84.2111 72° East 440 506 33,000  Level Atlanta Center
Tue 08:06:10 PM 33.7336 -84.0589 71° East 461 531 33,000  Level Atlanta Center
Tue 08:07:09 PM 33.7733 -83.9189 71° East 456 525 33,000  Level Atlanta Center
Tue 08:08:09 PM 33.8147 -83.7714 71° East 456 525 33,000 -50 Level Atlanta Center
Tue 08:09:10 PM 33.8542 -83.6286 72° East 451 519 32,900 -1,200 Descending Atlanta Center
Tue 08:10:09 PM 33.8931 -83.4833 72° East 451 519 30,600 -2,200 Descending Atlanta Center
Tue 08:11:10 PM 33.9342 -83.3428 71° East 446 513 28,500 -1,800 Descending Atlanta Center
Tue 08:12:09 PM 33.9689 -83.2147 72° East 446 513 27,000 -1,613 Descending Atlanta Center
Tue 08:13:09 PM 34.0056 -83.0764 72° East 441 507 25,300 -1,500 Descending Atlanta Center
Tue 08:14:09 PM 34.0544 -82.9506 65° Northeast 434 499 24,000 -650 Descending Atlanta Center
Tue 08:15:09 PM 34.1203 -82.8319 56° Northeast 416 479 24,000  Level Atlanta Center
Tue 08:16:09 PM 34.1500 -82.6933 75° East 409 471 24,000  Level Atlanta Center
Tue 08:17:10 PM 34.1775 -82.5447 77° East 415 478 24,000  Level Atlanta Center
Tue 08:18:09 PM 34.1986 -82.4039 80° East 415 478 24,000  Level Atlanta Center
Tue 08:19:09 PM 34.2175 -82.2603 81° East 420 483 24,000 -300 Level Atlanta Center
Tue 08:20:09 PM 34.2342 -82.1192 82° East 420 483 23,400 -1,750 Descending Atlanta Center
Tue 08:21:09 PM 34.2508 -81.9806 82° East 425 489 20,500 -2,450 Descending Atlanta Center
Tue 08:22:09 PM 34.2778 -81.8517 76° East 412 474 18,500 -1,950 Descending Atlanta Center
Tue 08:23:09 PM 34.3428 -81.7594 50° Northeast 358 412 16,600 -1,835 Descending Atlanta Center
Tue 08:24:10 PM 34.4036 -81.6672 51° Northeast 358 412 14,800 -2,114 Descending Atlanta Center
Tue 08:24:54 PM 34.4483 -81.6056 49° Northeast 338 389 12,900 -2,441 Descending Atlanta Center
Tue 08:25:09 PM 34.4564 -81.5875 62° Northeast 341 392 12,400 -1,102 Descending Atlanta Center
Tue 08:25:43 PM 34.4928 -81.5286 53° Northeast 334 384 12,000 -400 Descending Atlanta Center
Tue 08:26:09 PM 34.5089 -81.4953 60° Northeast 335 386 12,000  Level Atlanta Center
Tue 08:26:37 PM 34.5369 -81.4417 58° Northeast 329 379 12,000  Level Atlanta Center
Tue 08:27:09 PM 34.5614 -81.4106 46° Northeast 325 374 12,000  Level Atlanta Center
Tue 08:27:32 PM 34.5983 -81.3867 28° Northeast 316 364 12,000  Level Atlanta Center
Tue 08:28:09 PM 34.6436 -81.3575 28° Northeast 298 343 12,000  Level Atlanta Center
Tue 08:28:39 PM 34.6786 -81.3336 29° Northeast 287 330 12,000  Level Atlanta Center
Tue 08:29:09 PM 34.7158 -81.3197 17° North 288 331 12,000  Level Atlanta Center
Tue 08:29:40 PM 34.7575 -81.3158 North 289 333 12,000  Level Atlanta Center
Tue 08:30:09 PM 34.7969 -81.3069 10° North 282 325 12,000  Level Atlanta Center
Tue 08:30:41 PM 34.8386 -81.3006 North 290 334 12,000 -200 Level Atlanta Center
Tue 08:31:09 PM 34.8781 -81.2942 North 287 330 11,800 -800 Descending Atlanta Center
Tue 08:31:41 PM 34.9175 -81.2828 13° North 292 336 11,200 -1,100 Descending Atlanta Center
Tue 08:32:09 PM 34.9503 -81.2539 36° Northeast 287 330 10,700 -984 Descending Atlanta Center
Tue 08:32:42 PM 34.9869 -81.2197 37° Northeast 293 337 10,200 -700 Descending Atlanta Center
Tue 08:33:09 PM 35.0133 -81.1933 39° Northeast 286 329 10,000 -197 Descending Atlanta Center
Tue 08:33:43 PM 35.0503 -81.1567 39° Northeast 288 331 10,000 -200 Level Atlanta Center
Tue 08:34:09 PM 35.0744 -81.1303 42° Northeast 291 335 9,800 -764 Descending Atlanta Center
Tue 08:34:38 PM 35.1050 -81.0989 40° Northeast 285 328 9,300 -667 Descending Atlanta Center
Tue 08:35:39 PM 35.1664 -81.0408 38° Northeast 281 323 8,800 -1,254 Descending Atlanta Center
Tue 08:36:52 PM 35.2503 -81.0556 352° North 270 311 6,500 -1,671 Descending Atlanta Center
Tue 08:37:59 PM 35.3361 -81.0703 352° North 262 302 4,900 -1,541 Descending Atlanta Center
Tue 08:38:41 PM 35.3683 -81.0258 48° Northeast 267 307 3,700 -1,107 Descending Atlanta Center
Tue 08:39:42 PM 35.3542 -80.9550 104° East 227 261 3,000 -689 Descending Atlanta Center
Tue 08:40:43 PM 35.3000 -80.9622 186° South 181 208 2,300 -797 Descending Atlanta Center
Tue 08:41:50 PM 35.2503 -80.9717 189° South 153 176 1,300 -896 Descending Atlanta Center
Tue 08:43:00 PM 35.2137 -80.9491 158° South  Level Estimated
Tue 08:50:00 PM 35.2137 -80.9491 158° South  Level Estimated

Login

Don't have an account? Register now (free) for customized features, flight alerts, and more!